Nearby METAR Reports

 

NZWN - Wellington Intl, New Zealand
Distance from station: E 67km
Updated: 15/08/2018 06:30
Light rain, Mostly cloudy
Light rain, Mostly cloudy
 Wind from SSW
Wind: SSW 50 km/h
Temperature: 11°C
Dew Point: 9°C
Humidity: 88%
Barometer: 996 hPa
Summary: Light rain
Clouds: Mostly cloudy
Visibility: 9 km
Cloud details: Mostly cloudy 366 m
Mostly cloudy 792 m
2018/08/14 18:30 NZWN 141830Z AUTO 20027KT 9000 -RA BKN012/// BKN026/// 11/09 Q0996 TEMPO 5000 RADZ BKN006
NZCH - Christchurch Int, New Zealand
Distance from station: SSW 269km
Updated: 15/08/2018 06:30
Overcast
Overcast
 Wind from WSW
Wind: WSW 11 km/h
Temperature: 8°C
Wind Chill: 6°C
Dew Point: 6°C
Humidity: 87%
Barometer: 1000 hPa
Clouds: Overcast
Visibility: 10 km
Cloud details: Overcast 2134 m
2018/08/14 18:30 NZCH 141830Z AUTO 24006KT 9999 OVC070/// 08/06 Q1000 NOSIG
 
NZAA - Auckland Intl Ar, New Zealand
Distance from station: N 480km
Updated: 15/08/2018 06:30
Partly cloudy
Partly cloudy
 Wind from WSW
Wind: WSW 35 km/h
Temperature: 12°C
Dew Point: 9°C
Humidity: 82%
Barometer: 1000 hPa
Clouds: Partly cloudy
Visibility: 10 km
Cloud details: Few Clouds 945 m
Partly cloudy 1829 m
2018/08/14 18:30 NZAA 141830Z AUTO 24019KT 9999 FEW031/// SCT060/// 12/09 Q1000 TEMPO 6000 SHRA BKN012 FEW020TCU